sensor_id;sensor_type;location;lat;lon;timestamp;pressure;altitude;pressure_sealevel;temperature;humidity
58072;BME280;60383;46.626;18.866;2023-02-19T00:01:20;100625.34;;;8.95;72.24
58072;BME280;60383;46.626;18.866;2023-02-19T00:03:56;100635.38;;;8.95;71.48
58072;BME280;60383;46.626;18.866;2023-02-19T00:06:25;100628.88;;;8.76;72.35
58072;BME280;60383;46.626;18.866;2023-02-19T00:08:50;100626.75;;;8.80;72.47
58072;BME280;60383;46.626;18.866;2023-02-19T00:11:21;100624.00;;;8.70;72.72
58072;BME280;60383;46.626;18.866;2023-02-19T00:13:50;100630.31;;;8.71;72.90
58072;BME280;60383;46.626;18.866;2023-02-19T00:16:21;100633.63;;;8.74;72.48
58072;BME280;60383;46.626;18.866;2023-02-19T00:18:47;100639.78;;;8.67;72.52
58072;BME280;60383;46.626;18.866;2023-02-19T00:21:14;100644.25;;;8.68;72.90
58072;BME280;60383;46.626;18.866;2023-02-19T00:23:39;100652.19;;;8.90;72.32
58072;BME280;60383;46.626;18.866;2023-02-19T00:26:07;100651.75;;;8.85;71.87
58072;BME280;60383;46.626;18.866;2023-02-19T00:28:33;100645.44;;;8.75;72.33
58072;BME280;60383;46.626;18.866;2023-02-19T00:31:14;100653.34;;;8.88;71.86
58072;BME280;60383;46.626;18.866;2023-02-19T00:33:40;100650.50;;;8.99;71.45
58072;BME280;60383;46.626;18.866;2023-02-19T00:36:06;100656.81;;;9.00;71.56
58072;BME280;60383;46.626;18.866;2023-02-19T00:38:35;100652.75;;;8.94;71.17
58072;BME280;60383;46.626;18.866;2023-02-19T00:41:01;100654.78;;;8.92;71.81
58072;BME280;60383;46.626;18.866;2023-02-19T00:43:47;100643.41;;;8.77;72.42
58072;BME280;60383;46.626;18.866;2023-02-19T00:46:15;100649.16;;;8.74;72.65
58072;BME280;60383;46.626;18.866;2023-02-19T00:48:40;100650.97;;;8.63;73.07
58072;BME280;60383;46.626;18.866;2023-02-19T00:51:06;100647.13;;;8.76;72.71
58072;BME280;60383;46.626;18.866;2023-02-19T00:53:31;100645.84;;;8.70;73.02
58072;BME280;60383;46.626;18.866;2023-02-19T00:55:56;100648.25;;;8.63;73.22
58072;BME280;60383;46.626;18.866;2023-02-19T00:58:22;100651.69;;;8.56;73.56
58072;BME280;60383;46.626;18.866;2023-02-19T01:00:47;100645.72;;;8.41;74.06
58072;BME280;60383;46.626;18.866;2023-02-19T01:03:13;100651.06;;;8.21;74.43
58072;BME280;60383;46.626;18.866;2023-02-19T01:05:38;100647.72;;;8.08;74.97
58072;BME280;60383;46.626;18.866;2023-02-19T01:08:04;100646.31;;;8.13;75.61
58072;BME280;60383;46.626;18.866;2023-02-19T01:10:29;100633.16;;;7.97;76.41
58072;BME280;60383;46.626;18.866;2023-02-19T01:12:54;100636.94;;;8.06;76.35
58072;BME280;60383;46.626;18.866;2023-02-19T01:15:20;100637.63;;;7.98;76.11
58072;BME280;60383;46.626;18.866;2023-02-19T01:17:45;100637.75;;;7.97;75.98
58072;BME280;60383;46.626;18.866;2023-02-19T01:20:11;100639.22;;;8.01;76.48
58072;BME280;60383;46.626;18.866;2023-02-19T01:22:36;100647.56;;;7.99;76.44
58072;BME280;60383;46.626;18.866;2023-02-19T01:25:02;100643.59;;;8.13;75.85
58072;BME280;60383;46.626;18.866;2023-02-19T01:27:27;100662.00;;;8.21;76.11
58072;BME280;60383;46.626;18.866;2023-02-19T01:29:52;100655.09;;;8.17;75.98
58072;BME280;60383;46.626;18.866;2023-02-19T01:32:18;100644.06;;;8.28;75.93
58072;BME280;60383;46.626;18.866;2023-02-19T01:34:43;100639.34;;;8.30;75.62
58072;BME280;60383;46.626;18.866;2023-02-19T01:37:09;100621.09;;;8.31;75.65
58072;BME280;60383;46.626;18.866;2023-02-19T01:39:37;100614.53;;;8.34;75.72
58072;BME280;60383;46.626;18.866;2023-02-19T01:42:04;100635.66;;;8.41;75.43
58072;BME280;60383;46.626;18.866;2023-02-19T01:46:55;100633.66;;;8.43;75.70
58072;BME280;60383;46.626;18.866;2023-02-19T01:49:27;100636.88;;;8.49;75.25
58072;BME280;60383;46.626;18.866;2023-02-19T01:51:57;100629.47;;;8.39;75.80
58072;BME280;60383;46.626;18.866;2023-02-19T01:54:27;100635.03;;;8.28;76.24
58072;BME280;60383;46.626;18.866;2023-02-19T01:56:54;100628.75;;;8.37;75.83
58072;BME280;60383;46.626;18.866;2023-02-19T01:59:21;100634.47;;;8.34;76.00
58072;BME280;60383;46.626;18.866;2023-02-19T02:01:47;100647.22;;;8.55;75.36
58072;BME280;60383;46.626;18.866;2023-02-19T02:04:13;100637.31;;;8.54;75.22
58072;BME280;60383;46.626;18.866;2023-02-19T02:06:51;100649.81;;;8.56;75.34
58072;BME280;60383;46.626;18.866;2023-02-19T02:09:22;100645.91;;;8.49;75.65
58072;BME280;60383;46.626;18.866;2023-02-19T02:12:08;100647.19;;;8.24;76.88
58072;BME280;60383;46.626;18.866;2023-02-19T02:14:36;100647.31;;;8.12;77.59
58072;BME280;60383;46.626;18.866;2023-02-19T02:25:39;100613.03;;;7.89;78.37
58072;BME280;60383;46.626;18.866;2023-02-19T02:31:05;100627.88;;;7.96;78.85
58072;BME280;60383;46.626;18.866;2023-02-19T02:33:38;100631.50;;;8.06;78.16
58072;BME280;60383;46.626;18.866;2023-02-19T02:36:09;100636.75;;;7.98;77.84
58072;BME280;60383;46.626;18.866;2023-02-19T02:38:40;100636.66;;;7.78;78.67
58072;BME280;60383;46.626;18.866;2023-02-19T02:41:07;100648.53;;;7.77;79.14
58072;BME280;60383;46.626;18.866;2023-02-19T02:43:33;100638.78;;;7.96;78.36
58072;BME280;60383;46.626;18.866;2023-02-19T02:45:58;100644.97;;;8.08;77.90
58072;BME280;60383;46.626;18.866;2023-02-19T02:51:15;100640.97;;;8.02;78.08
58072;BME280;60383;46.626;18.866;2023-02-19T02:56:33;100650.47;;;8.18;77.11
58072;BME280;60383;46.626;18.866;2023-02-19T02:59:01;100648.09;;;8.24;76.79
58072;BME280;60383;46.626;18.866;2023-02-19T03:01:36;100652.09;;;8.20;77.04
58072;BME280;60383;46.626;18.866;2023-02-19T03:06:56;100648.97;;;8.35;76.09
58072;BME280;60383;46.626;18.866;2023-02-19T03:09:32;100651.00;;;8.32;76.03
58072;BME280;60383;46.626;18.866;2023-02-19T03:12:08;100643.63;;;8.23;76.62
58072;BME280;60383;46.626;18.866;2023-02-19T03:15:03;100635.66;;;8.41;75.80
58072;BME280;60383;46.626;18.866;2023-02-19T03:18:08;100637.94;;;8.36;75.91
58072;BME280;60383;46.626;18.866;2023-02-19T03:20:56;100645.97;;;8.38;75.57
58072;BME280;60383;46.626;18.866;2023-02-19T03:23:26;100654.97;;;8.50;75.18
58072;BME280;60383;46.626;18.866;2023-02-19T03:26:12;100654.63;;;8.43;75.46
58072;BME280;60383;46.626;18.866;2023-02-19T03:28:40;100663.09;;;8.40;75.53
58072;BME280;60383;46.626;18.866;2023-02-19T03:31:28;100660.16;;;8.22;76.29
58072;BME280;60383;46.626;18.866;2023-02-19T03:33:58;100664.09;;;8.39;74.95
58072;BME280;60383;46.626;18.866;2023-02-19T03:36:32;100662.47;;;8.26;75.44
58072;BME280;60383;46.626;18.866;2023-02-19T03:39:03;100667.59;;;8.20;75.49
58072;BME280;60383;46.626;18.866;2023-02-19T03:47:16;100656.69;;;8.20;75.49
58072;BME280;60383;46.626;18.866;2023-02-19T03:50:07;100668.88;;;8.15;74.96
58072;BME280;60383;46.626;18.866;2023-02-19T03:52:43;100665.94;;;8.07;75.41
58072;BME280;60383;46.626;18.866;2023-02-19T03:55:17;100674.88;;;8.40;74.35
58072;BME280;60383;46.626;18.866;2023-02-19T04:00:45;100677.75;;;8.39;74.26
58072;BME280;60383;46.626;18.866;2023-02-19T04:03:19;100677.19;;;8.45;73.91
58072;BME280;60383;46.626;18.866;2023-02-19T04:05:50;100684.19;;;8.38;74.27
58072;BME280;60383;46.626;18.866;2023-02-19T04:08:19;100677.69;;;8.29;74.74
58072;BME280;60383;46.626;18.866;2023-02-19T04:10:47;100690.66;;;8.37;73.98
58072;BME280;60383;46.626;18.866;2023-02-19T04:13:21;100678.00;;;8.36;74.50
58072;BME280;60383;46.626;18.866;2023-02-19T04:15:50;100684.13;;;8.49;73.75
58072;BME280;60383;46.626;18.866;2023-02-19T04:18:26;100679.13;;;8.54;73.51
58072;BME280;60383;46.626;18.866;2023-02-19T04:20:53;100672.97;;;8.62;73.00
58072;BME280;60383;46.626;18.866;2023-02-19T04:23:22;100682.13;;;8.20;73.82
58072;BME280;60383;46.626;18.866;2023-02-19T04:25:52;100679.47;;;8.40;74.04
58072;BME280;60383;46.626;18.866;2023-02-19T04:28:19;100679.19;;;8.43;73.59
58072;BME280;60383;46.626;18.866;2023-02-19T04:30:44;100681.91;;;8.43;73.75
58072;BME280;60383;46.626;18.866;2023-02-19T04:33:09;100682.06;;;8.41;73.47
58072;BME280;60383;46.626;18.866;2023-02-19T04:35:35;100678.81;;;8.47;72.87
58072;BME280;60383;46.626;18.866;2023-02-19T04:38:01;100680.56;;;8.58;72.49
58072;BME280;60383;46.626;18.866;2023-02-19T04:40:26;100684.84;;;8.51;72.61
58072;BME280;60383;46.626;18.866;2023-02-19T04:42:52;100691.78;;;8.65;71.91
58072;BME280;60383;46.626;18.866;2023-02-19T04:45:17;100686.84;;;8.49;72.64
58072;BME280;60383;46.626;18.866;2023-02-19T04:47:43;100676.19;;;8.46;72.87
58072;BME280;60383;46.626;18.866;2023-02-19T04:50:09;100686.03;;;8.58;72.52
58072;BME280;60383;46.626;18.866;2023-02-19T04:52:34;100680.28;;;8.61;72.35
58072;BME280;60383;46.626;18.866;2023-02-19T04:55:00;100670.13;;;8.73;71.67
58072;BME280;60383;46.626;18.866;2023-02-19T04:57:25;100660.50;;;8.79;71.59
58072;BME280;60383;46.626;18.866;2023-02-19T04:59:51;100662.09;;;8.82;70.80
58072;BME280;60383;46.626;18.866;2023-02-19T05:02:17;100658.75;;;8.68;71.60
58072;BME280;60383;46.626;18.866;2023-02-19T05:04:42;100653.88;;;8.72;71.18
58072;BME280;60383;46.626;18.866;2023-02-19T05:07:07;100670.81;;;8.66;71.17
58072;BME280;60383;46.626;18.866;2023-02-19T05:09:33;100670.97;;;8.64;71.74
58072;BME280;60383;46.626;18.866;2023-02-19T05:11:58;100664.91;;;8.51;71.97
58072;BME280;60383;46.626;18.866;2023-02-19T05:14:24;100675.38;;;8.55;71.98
58072;BME280;60383;46.626;18.866;2023-02-19T05:16:49;100683.13;;;8.50;71.88
58072;BME280;60383;46.626;18.866;2023-02-19T05:19:15;100670.84;;;8.44;72.42
58072;BME280;60383;46.626;18.866;2023-02-19T05:21:40;100664.75;;;8.52;71.79
58072;BME280;60383;46.626;18.866;2023-02-19T05:24:06;100668.66;;;8.38;72.69
58072;BME280;60383;46.626;18.866;2023-02-19T05:26:32;100662.44;;;8.47;72.22
58072;BME280;60383;46.626;18.866;2023-02-19T05:28:58;100657.56;;;8.51;72.12
58072;BME280;60383;46.626;18.866;2023-02-19T05:31:23;100653.25;;;8.49;72.02
58072;BME280;60383;46.626;18.866;2023-02-19T05:33:49;100663.09;;;8.40;72.67
58072;BME280;60383;46.626;18.866;2023-02-19T05:36:19;100666.53;;;8.42;72.21
58072;BME280;60383;46.626;18.866;2023-02-19T05:38:45;100665.47;;;8.54;72.08
58072;BME280;60383;46.626;18.866;2023-02-19T05:41:16;100667.25;;;8.44;72.15
58072;BME280;60383;46.626;18.866;2023-02-19T05:43:43;100660.41;;;8.19;73.01
58072;BME280;60383;46.626;18.866;2023-02-19T05:46:13;100663.56;;;8.24;72.85
58072;BME280;60383;46.626;18.866;2023-02-19T05:48:39;100664.75;;;8.31;73.45
58072;BME280;60383;46.626;18.866;2023-02-19T05:51:10;100658.78;;;8.37;73.03
58072;BME280;60383;46.626;18.866;2023-02-19T05:53:36;100657.19;;;8.44;72.68
58072;BME280;60383;46.626;18.866;2023-02-19T05:56:02;100658.56;;;8.50;72.48
58072;BME280;60383;46.626;18.866;2023-02-19T05:58:28;100671.56;;;8.68;71.87
58072;BME280;60383;46.626;18.866;2023-02-19T06:00:54;100671.44;;;8.79;71.42
58072;BME280;60383;46.626;18.866;2023-02-19T06:03:21;100669.22;;;8.53;71.81
58072;BME280;60383;46.626;18.866;2023-02-19T06:05:46;100672.16;;;8.81;71.40
58072;BME280;60383;46.626;18.866;2023-02-19T06:08:13;100667.16;;;8.86;70.96
58072;BME280;60383;46.626;18.866;2023-02-19T06:10:39;100667.97;;;8.77;71.33
58072;BME280;60383;46.626;18.866;2023-02-19T06:13:08;100657.03;;;8.77;71.09
58072;BME280;60383;46.626;18.866;2023-02-19T06:15:35;100651.56;;;8.67;71.26
58072;BME280;60383;46.626;18.866;2023-02-19T06:18:01;100657.94;;;8.77;71.18
58072;BME280;60383;46.626;18.866;2023-02-19T06:20:27;100663.78;;;8.63;71.82
58072;BME280;60383;46.626;18.866;2023-02-19T06:22:52;100672.81;;;8.63;72.10
58072;BME280;60383;46.626;18.866;2023-02-19T06:25:19;100679.63;;;8.79;71.45
58072;BME280;60383;46.626;18.866;2023-02-19T06:27:44;100671.25;;;8.71;71.38
58072;BME280;60383;46.626;18.866;2023-02-19T06:30:10;100671.59;;;8.87;71.32
58072;BME280;60383;46.626;18.866;2023-02-19T06:32:36;100673.03;;;8.91;71.20
58072;BME280;60383;46.626;18.866;2023-02-19T06:35:02;100668.59;;;9.00;70.84
58072;BME280;60383;46.626;18.866;2023-02-19T06:37:27;100661.84;;;8.94;70.76
58072;BME280;60383;46.626;18.866;2023-02-19T06:39:53;100666.75;;;9.01;70.64
58072;BME280;60383;46.626;18.866;2023-02-19T06:42:18;100664.16;;;9.09;70.62
58072;BME280;60383;46.626;18.866;2023-02-19T06:44:44;100659.13;;;8.94;71.23
58072;BME280;60383;46.626;18.866;2023-02-19T06:47:09;100646.75;;;9.10;70.89
58072;BME280;60383;46.626;18.866;2023-02-19T06:49:35;100643.59;;;9.24;69.75
58072;BME280;60383;46.626;18.866;2023-02-19T06:52:00;100636.69;;;9.40;69.45
58072;BME280;60383;46.626;18.866;2023-02-19T06:54:27;100634.94;;;9.49;69.19
58072;BME280;60383;46.626;18.866;2023-02-19T06:56:53;100634.09;;;9.48;69.27
58072;BME280;60383;46.626;18.866;2023-02-19T06:59:18;100637.28;;;9.34;69.63
58072;BME280;60383;46.626;18.866;2023-02-19T07:01:44;100617.41;;;9.41;69.17
58072;BME280;60383;46.626;18.866;2023-02-19T07:04:10;100613.06;;;9.49;69.03
58072;BME280;60383;46.626;18.866;2023-02-19T07:06:36;100615.09;;;9.56;68.73
58072;BME280;60383;46.626;18.866;2023-02-19T07:09:03;100622.41;;;9.66;68.46
58072;BME280;60383;46.626;18.866;2023-02-19T07:11:31;100611.16;;;9.79;67.87
58072;BME280;60383;46.626;18.866;2023-02-19T07:13:59;100627.41;;;9.80;68.06
58072;BME280;60383;46.626;18.866;2023-02-19T07:16:26;100642.41;;;9.76;68.44
58072;BME280;60383;46.626;18.866;2023-02-19T07:18:52;100640.50;;;9.86;68.25
58072;BME280;60383;46.626;18.866;2023-02-19T07:21:20;100637.53;;;9.60;68.61
58072;BME280;60383;46.626;18.866;2023-02-19T07:23:45;100643.25;;;9.77;68.18
58072;BME280;60383;46.626;18.866;2023-02-19T07:26:12;100633.31;;;9.75;68.51
58072;BME280;60383;46.626;18.866;2023-02-19T07:28:40;100631.88;;;9.81;67.86
58072;BME280;60383;46.626;18.866;2023-02-19T07:31:05;100629.88;;;9.83;68.44
58072;BME280;60383;46.626;18.866;2023-02-19T07:33:31;100634.03;;;9.78;68.63
58072;BME280;60383;46.626;18.866;2023-02-19T07:35:56;100632.50;;;9.55;69.30
58072;BME280;60383;46.626;18.866;2023-02-19T07:38:23;100626.31;;;9.53;70.33
58072;BME280;60383;46.626;18.866;2023-02-19T07:40:53;100625.88;;;9.58;70.83
58072;BME280;60383;46.626;18.866;2023-02-19T07:43:19;100623.59;;;9.53;71.13
58072;BME280;60383;46.626;18.866;2023-02-19T07:45:44;100628.91;;;9.45;71.54
58072;BME280;60383;46.626;18.866;2023-02-19T07:48:10;100628.63;;;9.48;72.18
58072;BME280;60383;46.626;18.866;2023-02-19T07:50:36;100621.00;;;9.52;71.62
58072;BME280;60383;46.626;18.866;2023-02-19T07:53:01;100609.94;;;9.34;72.67
58072;BME280;60383;46.626;18.866;2023-02-19T07:55:27;100608.63;;;9.38;73.50
58072;BME280;60383;46.626;18.866;2023-02-19T07:57:52;100619.44;;;9.49;73.87
58072;BME280;60383;46.626;18.866;2023-02-19T08:00:17;100620.28;;;9.40;74.02
58072;BME280;60383;46.626;18.866;2023-02-19T08:02:44;100603.16;;;9.57;74.57
58072;BME280;60383;46.626;18.866;2023-02-19T08:05:30;100591.81;;;9.33;73.82
58072;BME280;60383;46.626;18.866;2023-02-19T08:07:57;100588.34;;;9.40;73.60
58072;BME280;60383;46.626;18.866;2023-02-19T08:10:23;100588.34;;;9.31;74.12
58072;BME280;60383;46.626;18.866;2023-02-19T08:13:11;100596.56;;;9.50;74.58
58072;BME280;60383;46.626;18.866;2023-02-19T08:18:25;100580.59;;;9.46;74.76
58072;BME280;60383;46.626;18.866;2023-02-19T08:20:52;100596.09;;;9.45;75.98
58072;BME280;60383;46.626;18.866;2023-02-19T08:23:18;100607.19;;;9.43;76.73
58072;BME280;60383;46.626;18.866;2023-02-19T08:25:48;100593.38;;;9.45;75.39
58072;BME280;60383;46.626;18.866;2023-02-19T08:28:13;100599.00;;;9.43;75.95
58072;BME280;60383;46.626;18.866;2023-02-19T08:30:40;100605.31;;;9.44;75.08
58072;BME280;60383;46.626;18.866;2023-02-19T08:33:09;100596.69;;;9.29;76.16
58072;BME280;60383;46.626;18.866;2023-02-19T08:35:35;100556.81;;;9.46;74.67
58072;BME280;60383;46.626;18.866;2023-02-19T08:38:01;100612.81;;;9.52;74.96
58072;BME280;60383;46.626;18.866;2023-02-19T08:40:27;100604.03;;;9.48;75.18
58072;BME280;60383;46.626;18.866;2023-02-19T08:42:53;100606.34;;;9.23;75.00
58072;BME280;60383;46.626;18.866;2023-02-19T08:45:18;100599.41;;;9.39;75.64
58072;BME280;60383;46.626;18.866;2023-02-19T08:47:44;100584.91;;;9.38;75.40
58072;BME280;60383;46.626;18.866;2023-02-19T08:50:11;100570.91;;;9.51;75.38
58072;BME280;60383;46.626;18.866;2023-02-19T08:52:36;100586.03;;;9.55;74.79
58072;BME280;60383;46.626;18.866;2023-02-19T08:55:05;100609.28;;;9.69;74.61
58072;BME280;60383;46.626;18.866;2023-02-19T08:57:30;100591.22;;;9.49;74.90
58072;BME280;60383;46.626;18.866;2023-02-19T08:59:56;100586.44;;;9.61;74.29
58072;BME280;60383;46.626;18.866;2023-02-19T09:02:23;100590.59;;;9.65;74.15
58072;BME280;60383;46.626;18.866;2023-02-19T09:04:48;100598.34;;;9.69;74.00
58072;BME280;60383;46.626;18.866;2023-02-19T09:07:14;100610.78;;;9.44;75.09
58072;BME280;60383;46.626;18.866;2023-02-19T09:09:40;100594.47;;;9.72;75.16
58072;BME280;60383;46.626;18.866;2023-02-19T09:12:07;100622.41;;;9.56;74.77
58072;BME280;60383;46.626;18.866;2023-02-19T09:14:34;100596.66;;;9.49;76.06
58072;BME280;60383;46.626;18.866;2023-02-19T09:17:01;100567.28;;;9.70;73.67
58072;BME280;60383;46.626;18.866;2023-02-19T09:19:27;100602.41;;;9.65;74.89
58072;BME280;60383;46.626;18.866;2023-02-19T09:21:53;100571.00;;;9.69;74.07
58072;BME280;60383;46.626;18.866;2023-02-19T09:24:19;100576.91;;;9.65;74.63
58072;BME280;60383;46.626;18.866;2023-02-19T09:26:44;100562.72;;;9.51;76.14
58072;BME280;60383;46.626;18.866;2023-02-19T09:29:12;100555.47;;;9.70;75.38
58072;BME280;60383;46.626;18.866;2023-02-19T09:31:38;100544.38;;;9.71;74.02
58072;BME280;60383;46.626;18.866;2023-02-19T09:34:04;100531.59;;;10.00;72.58
58072;BME280;60383;46.626;18.866;2023-02-19T09:36:29;100541.00;;;9.87;73.67
58072;BME280;60383;46.626;18.866;2023-02-19T09:38:56;100548.44;;;10.05;72.75
58072;BME280;60383;46.626;18.866;2023-02-19T09:44:01;100514.38;;;10.17;72.10
58072;BME280;60383;46.626;18.866;2023-02-19T09:46:33;100533.38;;;10.19;71.60
58072;BME280;60383;46.626;18.866;2023-02-19T09:51:55;100554.06;;;10.31;71.50
58072;BME280;60383;46.626;18.866;2023-02-19T09:54:28;100556.50;;;10.06;72.25
58072;BME280;60383;46.626;18.866;2023-02-19T09:56:55;100568.00;;;10.10;72.54
58072;BME280;60383;46.626;18.866;2023-02-19T09:59:30;100562.88;;;10.25;71.91
58072;BME280;60383;46.626;18.866;2023-02-19T10:02:12;100547.00;;;10.29;71.16
58072;BME280;60383;46.626;18.866;2023-02-19T10:04:40;100552.81;;;10.53;71.47
58072;BME280;60383;46.626;18.866;2023-02-19T10:07:11;100555.41;;;10.55;71.07
58072;BME280;60383;46.626;18.866;2023-02-19T10:09:37;100557.72;;;10.68;70.46
58072;BME280;60383;46.626;18.866;2023-02-19T10:12:12;100549.22;;;10.71;70.22
58072;BME280;60383;46.626;18.866;2023-02-19T10:14:42;100568.50;;;10.97;68.72
58072;BME280;60383;46.626;18.866;2023-02-19T10:17:22;100567.00;;;11.03;68.88
58072;BME280;60383;46.626;18.866;2023-02-19T10:19:49;100568.25;;;10.91;68.69
58072;BME280;60383;46.626;18.866;2023-02-19T10:22:15;100576.47;;;10.91;68.79
58072;BME280;60383;46.626;18.866;2023-02-19T10:24:42;100551.09;;;11.07;68.43
58072;BME280;60383;46.626;18.866;2023-02-19T10:27:13;100545.00;;;10.95;67.82
58072;BME280;60383;46.626;18.866;2023-02-19T10:29:38;100554.09;;;10.95;68.09
58072;BME280;60383;46.626;18.866;2023-02-19T10:32:25;100567.16;;;10.83;68.91
58072;BME280;60383;46.626;18.866;2023-02-19T10:35:12;100554.72;;;11.07;67.55
58072;BME280;60383;46.626;18.866;2023-02-19T10:37:46;100547.16;;;11.09;68.56
58072;BME280;60383;46.626;18.866;2023-02-19T10:40:17;100538.00;;;11.18;67.29
58072;BME280;60383;46.626;18.866;2023-02-19T10:42:48;100535.41;;;11.35;66.52
58072;BME280;60383;46.626;18.866;2023-02-19T10:45:22;100536.09;;;11.37;66.48
58072;BME280;60383;46.626;18.866;2023-02-19T10:47:49;100520.78;;;11.53;65.93
58072;BME280;60383;46.626;18.866;2023-02-19T10:50:26;100520.25;;;11.49;65.84
58072;BME280;60383;46.626;18.866;2023-02-19T10:52:57;100516.25;;;11.43;67.01
58072;BME280;60383;46.626;18.866;2023-02-19T10:55:32;100506.34;;;11.50;66.93
58072;BME280;60383;46.626;18.866;2023-02-19T10:58:19;100507.97;;;11.61;65.42
58072;BME280;60383;46.626;18.866;2023-02-19T11:00:45;100511.63;;;11.70;65.05
58072;BME280;60383;46.626;18.866;2023-02-19T11:03:21;100520.88;;;11.69;65.80
58072;BME280;60383;46.626;18.866;2023-02-19T11:06:02;100511.00;;;11.85;65.58
58072;BME280;60383;46.626;18.866;2023-02-19T11:08:29;100506.78;;;12.33;64.00
58072;BME280;60383;46.626;18.866;2023-02-19T11:10:55;100511.53;;;12.82;62.17
58072;BME280;60383;46.626;18.866;2023-02-19T11:13:41;100507.56;;;13.26;61.79
58072;BME280;60383;46.626;18.866;2023-02-19T11:16:06;100505.09;;;13.72;59.51
58072;BME280;60383;46.626;18.866;2023-02-19T11:18:32;100503.94;;;14.15;56.77
58072;BME280;60383;46.626;18.866;2023-02-19T11:21:05;100502.13;;;14.30;56.69
58072;BME280;60383;46.626;18.866;2023-02-19T11:23:37;100512.94;;;14.72;55.70
58072;BME280;60383;46.626;18.866;2023-02-19T11:26:22;100510.63;;;15.07;53.62
58072;BME280;60383;46.626;18.866;2023-02-19T11:28:59;100510.13;;;15.03;53.38
58072;BME280;60383;46.626;18.866;2023-02-19T11:31:30;100509.22;;;15.26;52.39
58072;BME280;60383;46.626;18.866;2023-02-19T11:34:02;100509.13;;;15.19;53.11
58072;BME280;60383;46.626;18.866;2023-02-19T11:36:35;100501.00;;;15.41;53.70
58072;BME280;60383;46.626;18.866;2023-02-19T11:39:15;100487.56;;;15.38;51.67
58072;BME280;60383;46.626;18.866;2023-02-19T11:41:47;100492.47;;;15.27;52.07
58072;BME280;60383;46.626;18.866;2023-02-19T11:50:26;100496.25;;;15.11;52.93
58072;BME280;60383;46.626;18.866;2023-02-19T11:53:13;100479.69;;;15.49;52.05
58072;BME280;60383;46.626;18.866;2023-02-19T12:33:59;100471.91;;;16.13;48.97
58072;BME280;60383;46.626;18.866;2023-02-19T12:37:02;100461.22;;;16.25;48.88
58072;BME280;60383;46.626;18.866;2023-02-19T12:40:32;100462.94;;;16.48;48.06
58072;BME280;60383;46.626;18.866;2023-02-19T12:42:53;100464.19;;;16.45;48.03
58072;BME280;60383;46.626;18.866;2023-02-19T12:45:31;100457.16;;;16.42;47.58
58072;BME280;60383;46.626;18.866;2023-02-19T12:50:29;100444.19;;;16.43;47.11
58072;BME280;60383;46.626;18.866;2023-02-19T12:53:00;100437.41;;;16.45;47.75
58072;BME280;60383;46.626;18.866;2023-02-19T12:55:31;100434.88;;;16.29;47.82
58072;BME280;60383;46.626;18.866;2023-02-19T12:58:01;100440.28;;;16.01;47.31
58072;BME280;60383;46.626;18.866;2023-02-19T13:00:30;100434.19;;;16.05;48.34
58072;BME280;60383;46.626;18.866;2023-02-19T13:03:11;100442.00;;;16.02;47.98
58072;BME280;60383;46.626;18.866;2023-02-19T13:06:22;100444.69;;;15.95;48.34
58072;BME280;60383;46.626;18.866;2023-02-19T13:08:58;100454.47;;;16.12;48.63
58072;BME280;60383;46.626;18.866;2023-02-19T13:11:47;100460.00;;;16.12;48.37
58072;BME280;60383;46.626;18.866;2023-02-19T13:14:45;100446.06;;;16.21;47.03
58072;BME280;60383;46.626;18.866;2023-02-19T13:17:20;100445.78;;;16.16;47.90
58072;BME280;60383;46.626;18.866;2023-02-19T13:19:49;100454.06;;;16.16;48.09
58072;BME280;60383;46.626;18.866;2023-02-19T13:22:38;100444.47;;;15.96;47.43
58072;BME280;60383;46.626;18.866;2023-02-19T13:25:44;100433.78;;;16.08;48.07
58072;BME280;60383;46.626;18.866;2023-02-19T13:28:25;100436.25;;;16.18;47.71
58072;BME280;60383;46.626;18.866;2023-02-19T13:31:42;100427.50;;;16.15;48.63
58072;BME280;60383;46.626;18.866;2023-02-19T13:36:57;100431.47;;;16.27;48.33
58072;BME280;60383;46.626;18.866;2023-02-19T13:39:23;100434.34;;;16.19;48.75
58072;BME280;60383;46.626;18.866;2023-02-19T13:41:50;100418.00;;;16.02;48.17
58072;BME280;60383;46.626;18.866;2023-02-19T13:44:19;100418.50;;;16.27;47.66
58072;BME280;60383;46.626;18.866;2023-02-19T13:46:47;100423.63;;;16.31;48.51
58072;BME280;60383;46.626;18.866;2023-02-19T13:51:58;100412.56;;;16.31;48.10
58072;BME280;60383;46.626;18.866;2023-02-19T13:54:32;100400.22;;;16.26;48.12
58072;BME280;60383;46.626;18.866;2023-02-19T13:57:26;100395.69;;;16.04;48.28
58072;BME280;60383;46.626;18.866;2023-02-19T13:59:54;100396.88;;;15.94;48.91
58072;BME280;60383;46.626;18.866;2023-02-19T14:07:18;100375.38;;;15.90;49.02
58072;BME280;60383;46.626;18.866;2023-02-19T14:09:45;100379.25;;;15.95;48.76
58072;BME280;60383;46.626;18.866;2023-02-19T14:14:40;100378.03;;;15.83;48.50
58072;BME280;60383;46.626;18.866;2023-02-19T14:27:43;100394.59;;;15.98;47.88
58072;BME280;60383;46.626;18.866;2023-02-19T14:30:11;100388.97;;;15.76;48.47
58072;BME280;60383;46.626;18.866;2023-02-19T14:32:39;100392.56;;;15.77;49.34
58072;BME280;60383;46.626;18.866;2023-02-19T14:35:05;100397.56;;;15.67;48.06
58072;BME280;60383;46.626;18.866;2023-02-19T14:37:31;100398.41;;;15.52;47.91
58072;BME280;60383;46.626;18.866;2023-02-19T14:39:57;100401.63;;;15.26;48.27
58072;BME280;60383;46.626;18.866;2023-02-19T14:42:25;100395.81;;;15.06;48.64
58072;BME280;60383;46.626;18.866;2023-02-19T14:44:58;100414.88;;;15.15;48.58
58072;BME280;60383;46.626;18.866;2023-02-19T14:47:27;100415.34;;;15.19;48.93
58072;BME280;60383;46.626;18.866;2023-02-19T14:50:02;100381.94;;;15.14;48.61
58072;BME280;60383;46.626;18.866;2023-02-19T14:53:03;100406.94;;;15.12;47.71